Time;durP1;ratioP1;P1;durP2;ratioP2;P2;SDS_P1;SDS_P2;PMS_P1;PMS_P2;Temp;Humidity;BMP_temperature;BMP_pressure;BME280_temperature;BME280_humidity;BME280_pressure;Samples;Min_cycle;Max_cycle;Signal;HPM_P1;HPM_P2
2023/07/29 00:02:09;;;;;;;1.30;0.90;;;;;;;;;;4989019;28;20399;-83
2023/07/29 00:04:35;;;;;;;3.13;1.00;;;;;;;;;;4989080;28;20117;-83
2023/07/29 00:07:01;;;;;;;2.67;0.98;;;;;;;;;;4989300;28;20026;-83
2023/07/29 00:09:27;;;;;;;2.88;1.58;;;;;;;;;;4989481;28;20642;-83
2023/07/29 00:11:52;;;;;;;2.17;1.02;;;19.20;95.60;;;;;;4988629;28;20026;-82
2023/07/29 00:14:18;;;;;;;1.58;0.90;;;19.30;91.40;;;;;;4991801;28;20072;-83
2023/07/29 00:16:44;;;;;;;2.38;1.25;;;;;;;;;;4989161;28;20524;-83
2023/07/29 00:19:10;;;;;;;4.05;0.60;;;;;;;;;;4988980;28;20503;-83
2023/07/29 00:21:36;;;;;;;1.83;0.80;;;;;;;;;;4989219;28;20542;-83
2023/07/29 00:24:02;;;;;;;1.42;0.90;;;;;;;;;;4990704;28;20030;-82
2023/07/29 00:26:31;;;;;;;2.45;0.90;;;;;;;;;;4990251;28;20037;-83
2023/07/29 00:28:57;;;;;;;1.48;0.93;;;;;;;;;;4988966;28;20046;-82
2023/07/29 00:31:23;;;;;;;1.98;1.10;;;18.80;97.20;;;;;;4989205;28;20640;-83
2023/07/29 00:33:49;;;;;;;1.30;0.77;;;;;;;;;;4988701;28;20033;-82
2023/07/29 00:36:15;;;;;;;2.13;1.08;;;19.00;90.70;;;;;;4988893;28;20053;-82
2023/07/29 00:38:41;;;;;;;2.03;1.25;;;;;;;;;;4989518;28;20034;-82
2023/07/29 00:41:08;;;;;;;3.47;0.88;;;19.00;90.30;;;;;;4987493;28;20029;-83
2023/07/29 00:43:34;;;;;;;2.90;1.15;;;;;;;;;;4987696;28;20026;-82
2023/07/29 00:46:00;;;;;;;1.52;0.82;;;;;;;;;;4988759;28;20026;-83
2023/07/29 00:48:26;;;;;;;2.00;0.88;;;;;;;;;;4989076;28;20030;-83
2023/07/29 00:50:52;;;;;;;1.77;0.98;;;;;;;;;;4989238;28;20527;-82
2023/07/29 00:53:18;;;;;;;1.90;1.15;;;;;;;;;;4989251;28;20031;-83
2023/07/29 00:55:44;;;;;;;1.17;0.80;;;19.10;99.40;;;;;;4989039;28;20386;-82
2023/07/29 00:58:10;;;;;;;3.40;1.10;;;18.50;92.10;;;;;;4989074;28;20041;-82
2023/07/29 01:00:36;;;;;;;1.02;0.60;;;;;;;;;;5001274;28;20027;-83
2023/07/29 01:03:02;;;;;;;1.67;0.93;;;;;;;;;;4988322;28;20049;-83
2023/07/29 01:05:39;;;;;;;1.48;0.80;;;18.40;92.90;;;;;;4987775;28;20514;-82
2023/07/29 01:08:37;;;;;;;2.13;0.80;;;18.30;94.40;;;;;;4988575;28;20034;-83
2023/07/29 01:11:22;;;;;;;1.52;1.02;;;18.30;93.80;;;;;;4988639;28;20116;-82
2023/07/29 01:13:58;;;;;;;1.80;1.00;;;18.20;93.50;;;;;;4988903;28;20120;-84
2023/07/29 01:16:27;;;;;;;3.67;0.90;;;;;;;;;;4987032;28;20031;-84
2023/07/29 01:18:55;;;;;;;2.50;0.88;;;18.20;92.90;;;;;;4988945;28;20034;-83
2023/07/29 01:21:21;;;;;;;2.63;0.90;;;18.30;93.00;;;;;;4988486;28;20570;-83
2023/07/29 01:23:47;;;;;;;2.03;0.82;;;;;;;;;;4989082;28;20435;-82
2023/07/29 01:26:13;;;;;;;2.17;1.05;;;;;;;;;;4990114;28;20038;-82
2023/07/29 01:28:39;;;;;;;2.47;1.30;;;;;;;;;;4991144;28;20058;-83
2023/07/29 01:31:22;;;;;;;2.10;1.00;;;18.40;97.80;;;;;;4991910;28;20044;-82
2023/07/29 01:34:22;;;;;;;1.85;0.75;;;18.20;94.30;;;;;;4991808;28;20557;-82
2023/07/29 01:36:51;;;;;;;3.33;1.25;;;18.20;93.80;;;;;;4979869;28;20104;-82
2023/07/29 01:39:17;;;;;;;0.85;0.45;;;;;;;;;;4989515;28;20053;-83
2023/07/29 01:41:44;;;;;;;3.17;1.15;;;18.00;94.60;;;;;;4990261;28;20041;-83
2023/07/29 01:44:11;;;;;;;2.22;1.00;;;18.00;99.90;;;;;;4991733;28;20045;-83
2023/07/29 01:46:37;;;;;;;2.30;0.98;;;;;;;;;;4990635;28;20120;-83
2023/07/29 01:49:03;;;;;;;1.83;1.02;;;;;;;;;;4991888;28;20050;-83
2023/07/29 01:51:29;;;;;;;1.83;0.80;;;17.80;99.90;;;;;;4991761;28;20065;-82
2023/07/29 01:53:55;;;;;;;3.15;1.30;;;18.10;99.90;;;;;;4991592;28;20030;-83
2023/07/29 01:56:21;;;;;;;1.95;1.05;;;;;;;;;;4991181;28;20558;-82
2023/07/29 01:58:47;;;;;;;2.40;1.13;;;;;;;;;;4990917;28;20034;-82
2023/07/29 02:01:13;;;;;;;1.55;0.90;;;;;;;;;;4991595;28;20014;-83
2023/07/29 02:03:39;;;;;;;10.85;1.38;;;;;;;;;;4990704;28;20045;-83
2023/07/29 02:06:05;;;;;;;1.90;0.70;;;;;;;;;;4995449;28;20038;-83
2023/07/29 02:08:31;;;;;;;1.63;0.93;;;;;;;;;;4997209;28;20066;-82
2023/07/29 02:10:57;;;;;;;0.98;0.80;;;;;;;;;;4992129;28;20129;-82
2023/07/29 02:13:23;;;;;;;2.60;1.67;;;17.90;99.90;;;;;;4989854;28;20499;-82
2023/07/29 02:15:49;;;;;;;1.00;0.90;;;;;;;;;;4991225;28;20041;-83
2023/07/29 02:18:15;;;;;;;1.73;0.80;;;;;;;;;;4989970;28;20410;-83
2023/07/29 02:20:45;;;;;;;3.45;0.80;;;;;;;;;;4972956;28;20038;-83
2023/07/29 02:23:11;;;;;;;1.80;1.08;;;;;;;;;;4978970;28;20029;-83
2023/07/29 02:25:37;;;;;;;1.30;0.88;;;;;;;;;;4988826;28;20065;-83
2023/07/29 02:28:04;;;;;;;1.63;0.90;;;17.90;98.90;;;;;;4993704;28;20108;-83
2023/07/29 02:30:29;;;;;;;2.70;1.05;;;;;;;;;;4996003;28;20621;-82
2023/07/29 02:32:55;;;;;;;1.65;0.80;;;;;;;;;;4989520;28;20026;-83
2023/07/29 02:35:21;;;;;;;2.00;1.23;;;17.70;99.90;;;;;;4990164;28;20511;-82
2023/07/29 02:37:47;;;;;;;1.88;0.68;;;;;;;;;;4991320;28;20030;-83
2023/07/29 02:40:13;;;;;;;1.98;0.93;;;17.60;99.90;;;;;;4989417;28;20084;-82
2023/07/29 02:42:38;;;;;;;1.63;0.93;;;18.00;99.90;;;;;;4991280;28;20034;-82
2023/07/29 02:45:04;;;;;;;1.27;1.13;;;;;;;;;;4990539;28;20710;-82
2023/07/29 02:47:30;;;;;;;1.95;0.77;;;;;;;;;;4989814;28;20034;-83
2023/07/29 02:49:56;;;;;;;1.90;1.10;;;17.70;99.90;;;;;;4989718;28;20077;-83
2023/07/29 02:52:22;;;;;;;1.77;1.05;;;;;;;;;;4990802;28;20037;-82
2023/07/29 02:54:48;;;;;;;1.02;0.63;;;;;;;;;;4990499;28;20121;-83
2023/07/29 02:57:14;;;;;;;0.82;0.60;;;17.70;99.90;;;;;;4978048;28;20097;-82
2023/07/29 02:59:40;;;;;;;2.85;1.35;;;;;;;;;;4990211;28;20326;-83
2023/07/29 03:02:06;;;;;;;1.40;0.82;;;;;;;;;;4990935;28;20065;-83
2023/07/29 03:04:32;;;;;;;1.67;0.70;;;;;;;;;;4990045;28;20038;-83
2023/07/29 03:06:59;;;;;;;2.40;1.42;;;;;;;;;;4989284;28;20442;-83
2023/07/29 03:09:25;;;;;;;1.25;0.60;;;;;;;;;;4989937;28;20039;-82
2023/07/29 03:11:52;;;;;;;2.55;0.68;;;;;;;;;;4990382;28;20084;-82
2023/07/29 03:14:18;;;;;;;2.45;1.38;;;;;;;;;;4989649;28;20542;-83
2023/07/29 03:16:44;;;;;;;1.30;0.75;;;;;;;;;;4993667;28;20069;-83
2023/07/29 03:19:10;;;;;;;4.57;1.65;;;;;;;;;;4995380;28;20038;-82
2023/07/29 03:21:37;;;;;;;2.10;1.58;;;;;;;;;;4990679;28;20022;-82
2023/07/29 03:24:03;;;;;;;1.17;0.80;;;17.30;99.90;;;;;;4989844;28;20510;-82
2023/07/29 03:26:29;;;;;;;1.27;0.85;;;;;;;;;;4989987;28;20030;-82
2023/07/29 03:28:55;;;;;;;1.50;0.73;;;;;;;;;;4990031;28;20029;-83
2023/07/29 03:31:21;;;;;;;2.80;0.93;;;;;;;;;;4989959;28;20030;-82
2023/07/29 03:33:47;;;;;;;2.78;1.42;;;17.20;99.30;;;;;;4989066;28;20065;-83
2023/07/29 03:36:14;;;;;;;1.15;0.70;;;;;;;;;;4989922;28;20101;-83
2023/07/29 03:38:40;;;;;;;1.27;0.80;;;;;;;;;;4988884;28;20117;-82
2023/07/29 03:41:09;;;;;;;2.10;1.00;;;17.30;99.90;;;;;;4989709;28;20506;-82
2023/07/29 03:43:35;;;;;;;1.45;1.08;;;;;;;;;;4989715;28;20033;-82
2023/07/29 03:46:01;;;;;;;1.60;0.80;;;;;;;;;;4988674;28;20034;-83
2023/07/29 03:48:27;;;;;;;1.42;0.80;;;;;;;;;;4989140;28;20093;-82
2023/07/29 03:50:52;;;;;;;1.65;1.00;;;17.70;99.90;;;;;;4989442;28;20026;-82
2023/07/29 03:53:18;;;;;;;0.75;0.73;;;;;;;;;;4989260;28;20026;-82
2023/07/29 03:55:44;;;;;;;2.30;1.10;;;;;;;;;;4989625;28;20026;-82
2023/07/29 03:58:10;;;;;;;1.85;1.00;;;;;;;;;;4989729;28;20044;-82
2023/07/29 04:00:36;;;;;;;3.92;1.10;;;18.20;99.90;;;;;;4988247;28;20267;-82
2023/07/29 04:03:02;;;;;;;1.02;0.75;;;;;;;;;;4991611;28;20035;-82
2023/07/29 04:05:28;;;;;;;3.45;1.05;;;;;;;;;;4988031;28;20040;-83
2023/07/29 04:07:54;;;;;;;0.95;0.68;;;;;;;;;;4988847;28;20505;-83
2023/07/29 04:10:20;;;;;;;4.15;0.98;;;;;;;;;;4989598;28;20022;-82
2023/07/29 04:12:46;;;;;;;5.10;1.02;;;;;;;;;;4989217;28;20050;-82
2023/07/29 04:15:12;;;;;;;1.95;0.90;;;;;;;;;;4981411;28;20085;-81
2023/07/29 04:17:38;;;;;;;5.68;1.05;;;;;;;;;;4983860;28;20026;-82
2023/07/29 04:20:04;;;;;;;3.17;0.90;;;18.10;99.90;;;;;;4988241;28;20038;-83
2023/07/29 04:22:30;;;;;;;2.38;1.23;;;;;;;;;;4988700;28;20132;-82
2023/07/29 04:24:56;;;;;;;0.77;0.70;;;;;;;;;;4988693;28;20495;-82
2023/07/29 04:27:22;;;;;;;1.45;0.95;;;17.80;99.90;;;;;;4987873;28;20121;-82
2023/07/29 04:29:48;;;;;;;1.48;1.00;;;;;;;;;;4989213;28;20037;-82
2023/07/29 04:32:14;;;;;;;3.15;1.08;;;;;;;;;;4989355;28;20499;-82
2023/07/29 04:34:40;;;;;;;3.58;1.35;;;;;;;;;;4992552;28;20038;-83
2023/07/29 04:37:06;;;;;;;2.80;1.10;;;;;;;;;;4989096;28;20053;-82
2023/07/29 04:39:33;;;;;;;2.53;0.93;;;;;;;;;;4988692;28;20030;-82
2023/07/29 04:42:00;;;;;;;1.70;1.17;;;;;;;;;;4988612;28;20076;-83
2023/07/29 04:44:26;;;;;;;1.25;1.05;;;;;;;;;;4989290;28;20066;-82
2023/07/29 04:46:52;;;;;;;4.00;1.17;;;17.90;99.90;;;;;;4987418;28;20080;-82
2023/07/29 04:49:18;;;;;;;2.22;1.35;;;;;;;;;;4988810;28;20026;-82
2023/07/29 04:51:44;;;;;;;2.20;1.00;;;;;;;;;;4988635;28;20034;-82
2023/07/29 04:54:10;;;;;;;1.73;0.75;;;;;;;;;;4989044;28;20023;-83
2023/07/29 04:56:35;;;;;;;3.38;0.80;;;18.30;99.30;;;;;;4987371;28;20027;-83
2023/07/29 04:59:01;;;;;;;3.97;1.17;;;;;;;;;;4996532;28;20026;-83
2023/07/29 05:01:27;;;;;;;2.50;1.17;;;;;;;;;;4994184;28;20034;-82
2023/07/29 05:03:53;;;;;;;0.88;0.77;;;;;;;;;;4990160;28;20033;-82
2023/07/29 05:06:19;;;;;;;3.03;1.38;;;;;;;;;;4992284;28;20026;-82
2023/07/29 05:08:45;;;;;;;2.70;1.17;;;;;;;;;;4995029;28;20084;-83
2023/07/29 05:11:11;;;;;;;1.52;0.93;;;;;;;;;;4991023;28;20428;-82
2023/07/29 05:13:38;;;;;;;1.80;1.10;;;;;;;;;;4991077;28;20034;-82
2023/07/29 05:16:04;;;;;;;1.45;1.02;;;;;;;;;;4992237;28;20033;-83
2023/07/29 05:18:30;;;;;;;2.33;1.00;;;;;;;;;;4992618;28;20050;-82
2023/07/29 05:20:55;;;;;;;2.90;1.30;;;19.30;97.70;;;;;;4992372;28;20030;-83
2023/07/29 05:23:21;;;;;;;2.28;1.05;;;;;;;;;;4991944;28;20022;-82
2023/07/29 05:25:47;;;;;;;2.10;0.90;;;;;;;;;;4992412;28;20066;-82
2023/07/29 05:28:13;;;;;;;3.30;1.27;;;;;;;;;;4992620;28;20104;-82
2023/07/29 05:30:40;;;;;;;1.52;1.10;;;;;;;;;;4991861;28;20502;-83
2023/07/29 05:33:08;;;;;;;2.05;1.08;;;;;;;;;;4992270;28;20026;-83
2023/07/29 05:35:34;;;;;;;3.80;1.23;;;;;;;;;;4991628;28;20045;-83
2023/07/29 05:38:00;;;;;;;1.30;1.20;;;;;;;;;;4991843;28;20034;-82
2023/07/29 05:40:26;;;;;;;2.38;1.15;;;20.60;99.90;;;;;;4991981;28;20546;-83
2023/07/29 05:42:51;;;;;;;2.58;1.95;;;;;;;;;;4992426;28;20101;-82
2023/07/29 05:45:17;;;;;;;5.22;1.55;;;;;;;;;;4990437;28;20097;-82
2023/07/29 05:47:43;;;;;;;0.93;0.65;;;;;;;;;;4992221;28;20029;-83
2023/07/29 05:50:10;;;;;;;1.23;0.90;;;;;;;;;;4991639;28;20030;-83
2023/07/29 05:52:36;;;;;;;1.23;0.95;;;;;;;;;;4992685;28;20053;-82
2023/07/29 05:55:02;;;;;;;2.53;1.13;;;;;;;;;;5003573;28;20483;-83
2023/07/29 05:57:28;;;;;;;6.55;1.33;;;19.60;94.90;;;;;;4995039;28;20034;-83
2023/07/29 05:59:54;;;;;;;2.50;1.50;;;;;;;;;;4992001;28;20027;-83
2023/07/29 06:02:20;;;;;;;2.13;0.88;;;;;;;;;;4992446;28;20113;-83
2023/07/29 06:04:45;;;;;;;1.50;1.10;;;19.90;98.00;;;;;;4990553;28;20038;-83
2023/07/29 06:07:11;;;;;;;4.80;1.27;;;;;;;;;;4992376;28;20416;-83
2023/07/29 06:09:37;;;;;;;2.60;1.05;;;;;;;;;;4992093;28;20034;-83
2023/07/29 06:12:03;;;;;;;2.53;1.08;;;;;;;;;;4992395;28;20089;-81
2023/07/29 06:14:29;;;;;;;2.25;1.20;;;;;;;;;;4991395;28;20038;-83
2023/07/29 06:16:55;;;;;;;5.07;1.30;;;;;;;;;;4991248;28;20364;-83
2023/07/29 06:19:21;;;;;;;3.95;1.55;;;;;;;;;;4992050;28;20140;-83
2023/07/29 06:21:47;;;;;;;2.45;1.63;;;;;;;;;;4990981;28;20045;-83
2023/07/29 06:24:13;;;;;;;2.08;1.30;;;;;;;;;;4991960;28;20027;-84
2023/07/29 06:26:39;;;;;;;1.75;1.30;;;;;;;;;;4992034;28;20480;-83
2023/07/29 06:29:05;;;;;;;2.83;1.70;;;;;;;;;;4992521;28;20069;-83
2023/07/29 06:31:32;;;;;;;3.92;1.65;;;;;;;;;;4991792;28;20037;-82
2023/07/29 06:33:58;;;;;;;3.03;1.52;;;;;;;;;;4991277;28;20061;-83
2023/07/29 06:36:24;;;;;;;3.17;1.90;;;;;;;;;;4991463;28;20050;-83
2023/07/29 06:38:50;;;;;;;2.58;1.42;;;;;;;;;;4991478;28;20037;-83
2023/07/29 06:41:16;;;;;;;4.88;2.17;;;;;;;;;;4991764;28;20024;-83
2023/07/29 06:43:42;;;;;;;2.42;1.10;;;;;;;;;;4991199;28;20018;-82
2023/07/29 06:46:08;;;;;;;2.92;1.27;;;;;;;;;;4990596;28;20110;-81
2023/07/29 06:48:34;;;;;;;2.97;0.90;;;20.80;99.90;;;;;;4989411;28;20444;-83
2023/07/29 06:51:00;;;;;;;2.47;1.17;;;;;;;;;;4991026;28;20045;-82
2023/07/29 06:53:28;;;;;;;2.53;1.27;;;20.90;94.90;;;;;;4990925;28;20030;-82
2023/07/29 06:55:54;;;;;;;3.08;1.10;;;;;;;;;;4991214;28;20027;-82
2023/07/29 06:58:20;;;;;;;5.28;1.75;;;;;;;;;;4990287;28;20475;-82
2023/07/29 07:00:46;;;;;;;3.80;1.40;;;;;;;;;;4990721;28;20112;-83
2023/07/29 07:03:12;;;;;;;2.17;1.40;;;;;;;;;;4989109;28;20472;-80
2023/07/29 07:05:38;;;;;;;1.83;1.38;;;21.90;98.20;;;;;;4989212;28;20034;-81
2023/07/29 07:08:04;;;;;;;2.40;1.45;;;;;;;;;;4990606;28;21590;-82
2023/07/29 07:10:30;;;;;;;2.58;1.00;;;;;;;;;;4990677;28;20716;-82
2023/07/29 07:12:56;;;;;;;6.00;1.35;;;;;;;;;;4991202;28;20472;-82
2023/07/29 07:15:22;;;;;;;3.03;1.63;;;;;;;;;;4998692;28;20496;-81
2023/07/29 07:17:48;;;;;;;3.25;1.80;;;;;;;;;;4990331;28;20069;-81
2023/07/29 07:20:14;;;;;;;1.90;0.95;;;;;;;;;;4990173;28;20110;-83
2023/07/29 07:22:40;;;;;;;2.22;1.08;;;;;;;;;;4990337;28;20562;-83
2023/07/29 07:25:06;;;;;;;3.28;1.60;;;22.50;98.00;;;;;;4989283;28;20038;-82
2023/07/29 07:27:32;;;;;;;2.33;1.15;;;;;;;;;;4989771;28;20037;-82
2023/07/29 07:29:58;;;;;;;1.98;0.90;;;;;;;;;;4989999;28;20037;-82
2023/07/29 07:32:24;;;;;;;2.55;1.33;;;;;;;;;;4989882;28;20101;-82
2023/07/29 07:34:50;;;;;;;2.97;1.50;;;;;;;;;;4990007;28;20094;-81
2023/07/29 07:37:16;;;;;;;2.03;1.13;;;23.20;92.90;;;;;;4989343;28;20050;-82
2023/07/29 07:39:42;;;;;;;4.00;1.65;;;;;;;;;;4989849;28;20499;-82
2023/07/29 07:42:08;;;;;;;2.08;1.20;;;;;;;;;;4989420;28;20411;-82
2023/07/29 07:44:34;;;;;;;1.88;1.38;;;;;;;;;;4989553;28;20038;-82
2023/07/29 07:47:00;;;;;;;1.17;1.08;;;;;;;;;;4988415;28;20027;-82
2023/07/29 07:49:26;;;;;;;2.40;1.30;;;;;;;;;;4989548;28;20041;-82
2023/07/29 07:51:52;;;;;;;2.47;0.88;;;;;;;;;;4989569;28;20108;-82
2023/07/29 07:54:18;;;;;;;1.45;0.65;;;;;;;;;;4989729;28;20030;-82
2023/07/29 07:56:43;;;;;;;2.60;1.15;;;28.00;61.80;;;;;;4989010;28;20077;-82
2023/07/29 07:59:09;;;;;;;1.15;0.63;;;;;;;;;;4989738;28;20037;-83
2023/07/29 08:01:36;;;;;;;4.05;0.60;;;25.80;67.30;;;;;;4989229;28;20031;-81
2023/07/29 08:04:03;;;;;;;2.08;1.08;;;25.20;87.00;;;;;;4989098;28;20097;-82
2023/07/29 08:06:29;;;;;;;0.95;0.60;;;;;;;;;;4991788;28;20041;-81
2023/07/29 08:08:55;;;;;;;2.95;1.13;;;23.20;92.00;;;;;;4989978;28;20030;-82
2023/07/29 08:11:20;;;;;;;2.63;0.88;;;23.10;89.00;;;;;;4989124;28;20396;-81
2023/07/29 08:13:46;;;;;;;2.42;1.02;;;22.70;94.70;;;;;;4989936;28;20030;-86
2023/07/29 08:16:12;;;;;;;2.03;1.00;;;22.50;85.60;;;;;;4989997;28;20030;-82
2023/07/29 08:18:38;;;;;;;2.92;1.13;;;;;;;;;;4990984;28;20144;-82
2023/07/29 08:21:04;;;;;;;2.47;1.00;;;22.50;94.70;;;;;;4990772;28;20057;-82
2023/07/29 08:23:32;;;;;;;3.20;1.23;;;22.60;85.30;;;;;;4990136;28;20478;-83
2023/07/29 08:26:02;;;;;;;1.58;0.70;;;22.50;85.10;;;;;;4997583;28;20038;-82
2023/07/29 08:28:32;;;;;;;1.00;0.60;;;22.50;84.90;;;;;;4990307;28;20053;-82
2023/07/29 08:30:58;;;;;;;1.33;0.77;;;;;;;;;;5001508;28;20651;-82
2023/07/29 08:33:25;;;;;;;2.63;0.75;;;;;;;;;;4989864;28;20060;-82
2023/07/29 08:35:51;;;;;;;1.45;0.77;;;;;;;;;;4988226;28;20069;-81
2023/07/29 08:38:17;;;;;;;2.72;1.13;;;;;;;;;;4993923;28;20034;-83
2023/07/29 08:40:45;;;;;;;3.50;1.88;;;;;;;;;;4992907;28;20022;-84
2023/07/29 08:43:13;;;;;;;2.42;1.23;;;21.70;90.60;;;;;;4994132;28;20034;-84
2023/07/29 08:45:40;;;;;;;2.88;1.35;;;21.60;91.50;;;;;;4992693;28;20042;-85
2023/07/29 08:48:11;;;;;;;1.95;1.23;;;21.50;93.00;;;;;;4994139;28;20026;-85
2023/07/29 08:50:37;;;;;;;2.33;1.38;;;;;;;;;;4993688;28;20038;-85
2023/07/29 08:53:06;;;;;;;3.70;1.00;;;21.50;99.90;;;;;;4994140;28;20022;-85
2023/07/29 08:55:33;;;;;;;2.55;1.17;;;;;;;;;;4996612;28;20380;-84
2023/07/29 08:57:59;;;;;;;1.48;1.02;;;21.60;93.90;;;;;;5006482;28;20026;-84
2023/07/29 09:00:29;;;;;;;1.42;0.80;;;;;;;;;;4993849;28;20018;-85
2023/07/29 09:02:55;;;;;;;3.28;0.95;;;;;;;;;;4993218;28;20053;-86
2023/07/29 09:05:21;;;;;;;2.15;1.13;;;21.40;99.90;;;;;;4987169;28;20042;-85
2023/07/29 09:07:50;;;;;;;2.55;1.20;;;21.50;94.60;;;;;;4986959;28;20442;-85
2023/07/29 09:10:16;;;;;;;2.50;1.15;;;;;;;;;;4991659;28;20413;-85
2023/07/29 09:12:42;;;;;;;4.15;1.10;;;;;;;;;;4993009;28;20501;-85
2023/07/29 09:15:09;;;;;;;2.35;1.42;;;21.30;98.90;;;;;;4979084;28;20026;-85
2023/07/29 09:17:35;;;;;;;1.88;0.98;;;;;;;;;;4993012;28;20026;-85
2023/07/29 09:20:01;;;;;;;2.15;1.13;;;;;;;;;;4990016;28;20049;-85
2023/07/29 09:22:27;;;;;;;1.65;1.20;;;21.30;95.90;;;;;;4992851;28;20727;-84
2023/07/29 09:24:53;;;;;;;2.83;1.48;;;;;;;;;;4993254;28;20121;-84
2023/07/29 09:27:27;;;;;;;2.63;1.00;;;;;;;;;;4992690;28;20073;-85
2023/07/29 09:29:53;;;;;;;2.33;1.15;;;;;;;;;;4992823;28;20030;-84
2023/07/29 09:32:24;;;;;;;2.23;1.20;;;22.00;94.00;;;;;;4993069;28;20100;-84
2023/07/29 09:34:50;;;;;;;2.08;1.00;;;;;;;;;;4993186;28;20117;-83
2023/07/29 09:37:17;;;;;;;2.70;1.30;;;22.80;92.20;;;;;;4992708;28;20117;-83
2023/07/29 09:39:49;;;;;;;3.78;1.60;;;23.00;91.60;;;;;;4992598;28;20446;-84
2023/07/29 09:42:22;;;;;;;2.90;1.85;;;22.90;91.70;;;;;;4992098;28;20030;-83
2023/07/29 09:44:49;;;;;;;3.15;1.55;;;22.60;92.30;;;;;;4991608;28;20073;-84
2023/07/29 09:47:22;;;;;;;;;;;22.50;94.40;;;;;;4991062;28;20101;-83
2023/07/29 09:49:48;;;;;;;1.67;0.80;;;;;;;;;;4992054;28;19906;-84
2023/07/29 09:52:17;;;;;;;2.45;1.20;;;22.00;94.90;;;;;;5005925;28;20030;-84
2023/07/29 09:54:44;;;;;;;2.08;1.15;;;22.00;95.50;;;;;;4992531;28;20030;-84
2023/07/29 09:57:13;;;;;;;6.43;1.23;;;22.20;95.40;;;;;;4992352;28;20146;-83
2023/07/29 09:59:39;;;;;;;2.88;1.15;;;;;;;;;;4992661;28;20518;-84
2023/07/29 10:02:14;;;;;;;3.35;1.40;;;24.30;90.90;;;;;;4992145;28;20030;-83
2023/07/29 10:04:42;;;;;;;5.82;1.38;;;24.90;83.20;;;;;;4999060;28;20093;-84
2023/07/29 10:07:10;;;;;;;2.22;1.55;;;24.70;81.20;;;;;;5002425;28;20026;-83
2023/07/29 10:09:37;;;;;;;4.97;1.48;;;24.60;81.60;;;;;;5008698;28;20059;-84
2023/07/29 10:12:03;;;;;;;2.92;1.55;;;;;;;;;;4991849;28;20030;-84
2023/07/29 10:14:31;;;;;;;2.38;1.17;;;27.50;73.50;;;;;;4992180;28;20036;-83
2023/07/29 10:16:57;;;;;;;3.60;1.58;;;;;;;;;;4992353;28;20034;-83
2023/07/29 10:19:25;;;;;;;1.30;0.95;;;30.20;62.00;;;;;;4991569;28;20077;-83
2023/07/29 10:21:52;;;;;;;1.13;0.88;;;;;;;;;;4991955;28;20034;-84
2023/07/29 10:24:23;;;;;;;2.20;1.00;;;30.30;61.60;;;;;;4993510;28;20029;-83
2023/07/29 10:26:50;;;;;;;3.60;0.82;;;30.50;61.90;;;;;;4991476;28;20058;-83
2023/07/29 10:29:20;;;;;;;;;;;30.50;59.60;;;;;;4990549;28;20033;-82
2023/07/29 10:31:46;;;;;;;2.25;0.90;;;29.60;62.20;;;;;;4991363;28;19910;-83
2023/07/29 10:34:13;;;;;;;4.57;1.48;;;29.70;63.30;;;;;;4991353;28;20053;-81
2023/07/29 10:36:39;;;;;;;;;;;29.80;63.90;;;;;;4991720;28;20047;-83
2023/07/29 10:39:07;;;;;;;3.42;1.00;;;34.30;67.60;;;;;;4991524;28;19937;-83
2023/07/29 10:41:56;;;;;;;1.50;0.82;;;37.60;50.70;;;;;;4991600;28;20031;-83
2023/07/29 10:44:43;;;;;;;1.80;1.05;;;37.80;47.70;;;;;;4992876;28;20057;-83
2023/07/29 10:47:15;;;;;;;1.50;1.15;;;36.70;60.60;;;;;;4989623;28;20034;-83
2023/07/29 10:49:42;;;;;;;1.83;0.70;;;;;;;;;;4990795;28;20105;-83
2023/07/29 10:52:07;;;;;;;3.97;1.00;;;33.80;59.20;;;;;;4990638;28;20398;-83
2023/07/29 10:54:46;;;;;;;1.77;0.67;;;34.60;50.00;;;;;;4991064;28;20031;-82
2023/07/29 10:57:16;;;;;;;3.58;1.00;;;36.20;48.10;;;;;;4990131;28;20073;-82
2023/07/29 10:59:55;;;;;;;1.48;0.95;;;36.00;53.50;;;;;;4990124;28;20041;-82
2023/07/29 11:02:21;;;;;;;2.53;1.17;;;;;;;;;;4990828;28;20131;-83
2023/07/29 11:04:50;;;;;;;1.52;0.68;;;44.60;38.00;;;;;;4989926;28;20052;-82
2023/07/29 11:07:15;;;;;;;2.53;0.60;;;46.90;38.20;;;;;;4990387;28;20034;-80
2023/07/29 11:09:41;;;;;;;1.65;1.00;;;43.90;43.20;;;;;;4982584;28;20794;-80
2023/07/29 11:12:26;;;;;;;;;;;43.90;35.60;;;;;;4981730;28;20519;-80
2023/07/29 11:14:52;;;;;;;2.35;0.90;;;;;;;;;;4987101;28;20497;-81
2023/07/29 11:17:18;;;;;;;1.92;1.23;;;46.50;40.00;;;;;;4981452;28;20137;-81
2023/07/29 11:19:44;;;;;;;;;;;47.20;33.10;;;;;;4993776;28;20035;-82
2023/07/29 11:22:10;;;;;;;2.53;0.70;;;;;;;;;;4995767;28;19910;-82
2023/07/29 11:24:36;;;;;;;;;;;49.40;30.80;;;;;;4991161;28;20482;-81
2023/07/29 11:27:02;;;;;;;2.88;1.00;;;;;;;;;;4993364;28;19938;-81
2023/07/29 11:29:27;;;;;;;2.05;0.95;;;;;;;;;;4999688;28;20045;-80
2023/07/29 11:31:54;;;;;;;1.77;0.60;;;;;;;;;;4984600;28;20030;-80
2023/07/29 11:34:33;;;;;;;1.60;0.80;;;52.90;28.50;;;;;;4988393;28;20058;-80
2023/07/29 11:36:59;;;;;;;0.90;0.35;;;;;;;;;;4990043;28;20062;-79
2023/07/29 11:39:25;;;;;;;2.42;0.88;;;;;;;;;;4996407;28;20799;-81
2023/07/29 11:41:51;;;;;;;1.35;0.90;;;;;;;;;;4988602;28;20038;-80
2023/07/29 11:44:18;;;;;;;1.35;0.68;;;53.70;26.40;;;;;;4994962;28;20041;-80
2023/07/29 11:46:44;;;;;;;1.10;0.63;;;53.00;26.00;;;;;;4986511;28;20077;-81
2023/07/29 11:49:10;;;;;;;3.67;0.73;;;;;;;;;;4986298;28;20033;-81
2023/07/29 11:51:36;;;;;;;1.00;0.52;;;52.60;25.10;;;;;;4993615;28;20034;-80
2023/07/29 11:54:02;;;;;;;1.65;0.90;;;;;;;;;;4998245;28;20518;-81
2023/07/29 11:56:30;;;;;;;1.35;0.52;;;52.80;25.30;;;;;;5000120;28;20026;-81
2023/07/29 11:58:56;;;;;;;1.13;0.60;;;;;;;;;;4987622;28;20568;-81
2023/07/29 12:01:22;;;;;;;1.50;0.57;;;49.40;25.60;;;;;;4992592;28;20105;-80
2023/07/29 12:03:49;;;;;;;3.03;0.95;;;;;;;;;;4991485;28;20057;-79
2023/07/29 12:06:15;;;;;;;2.25;1.38;;;42.20;36.60;;;;;;4989407;28;20070;-83
2023/07/29 12:08:41;;;;;;;;;;;39.90;30.50;;;;;;4988091;28;20040;-82
2023/07/29 12:11:07;;;;;;;1.73;0.70;;;;;;;;;;4993809;28;20413;-82
2023/07/29 12:13:33;;;;;;;1.17;0.52;;;;;;;;;;4985488;28;20029;-83
2023/07/29 12:16:03;;;;;;;0.88;0.60;;;35.00;35.60;;;;;;4992358;28;20033;-82
2023/07/29 12:18:36;;;;;;;1.35;0.50;;;33.80;50.70;;;;;;4998086;28;20023;-82
2023/07/29 12:21:03;;;;;;;1.58;1.05;;;32.80;38.50;;;;;;4997172;28;20026;-81
2023/07/29 12:23:29;;;;;;;2.90;1.13;;;;;;;;;;4990842;28;20029;-82
2023/07/29 12:25:58;;;;;;;;;;;32.10;40.90;;;;;;4989234;28;20034;-81
2023/07/29 12:28:25;;;;;;;1.73;0.43;;;31.80;40.50;;;;;;4997922;28;19910;-81
2023/07/29 12:30:54;;;;;;;;;;;31.60;41.70;;;;;;4993439;28;20106;-83
2023/07/29 12:33:55;;;;;;;1.23;0.52;;;31.00;41.90;;;;;;4982473;28;19909;-81
2023/07/29 12:36:21;;;;;;;0.95;0.65;;;;;;;;;;4988892;28;20050;-81
2023/07/29 12:38:47;;;;;;;1.13;0.60;;;;;;;;;;4991478;28;20033;-82
2023/07/29 12:41:13;;;;;;;1.20;0.80;;;;;;;;;;4992336;28;20030;-82
2023/07/29 12:43:39;;;;;;;1.50;0.70;;;;;;;;;;4985087;28;20046;-82
2023/07/29 12:46:05;;;;;;;1.05;0.73;;;;;;;;;;4985897;28;20419;-82
2023/07/29 12:48:31;;;;;;;1.33;0.80;;;31.70;56.70;;;;;;4999068;28;20030;-82
2023/07/29 12:50:57;;;;;;;1.50;0.70;;;;;;;;;;4987617;28;20071;-82
2023/07/29 12:53:23;;;;;;;1.60;0.95;;;;;;;;;;4987955;28;20022;-81
2023/07/29 12:55:49;;;;;;;1.07;0.73;;;;;;;;;;4988735;28;20372;-81
2023/07/29 12:58:14;;;;;;;2.67;0.90;;;34.00;54.10;;;;;;4991621;28;20026;-82
2023/07/29 13:00:40;;;;;;;1.70;0.77;;;;;;;;;;4999586;28;20029;-82
2023/07/29 13:03:06;;;;;;;3.90;0.70;;;33.50;48.80;;;;;;4993469;28;20551;-82
2023/07/29 13:05:32;;;;;;;1.20;0.90;;;;;;;;;;4987415;28;20100;-81
2023/07/29 13:07:58;;;;;;;1.17;0.70;;;;;;;;;;4992223;28;20030;-81
2023/07/29 13:10:23;;;;;;;1.97;0.90;;;;;;;;;;4987713;28;20030;-82
2023/07/29 13:12:49;;;;;;;2.80;1.50;;;;;;;;;;4992691;28;20037;-82
2023/07/29 13:15:15;;;;;;;1.47;0.60;;;;;;;;;;4987700;28;20407;-81
2023/07/29 13:17:41;;;;;;;2.65;0.75;;;;;;;;;;4987528;28;20038;-81
2023/07/29 13:20:08;;;;;;;1.63;1.07;;;;;;;;;;4982704;28;20369;-82
2023/07/29 13:22:34;;;;;;;2.45;1.10;;;;;;;;;;4982178;28;20026;-81
2023/07/29 13:25:01;;;;;;;4.40;0.87;;;33.30;55.10;;;;;;4988736;28;20033;-81
2023/07/29 13:27:26;;;;;;;;;;;33.30;41.70;;;;;;4991446;28;20038;-80
2023/07/29 13:29:52;;;;;;;2.53;0.70;;;33.20;55.40;;;;;;4997036;28;20371;-80
2023/07/29 13:32:18;;;;;;;0.93;0.60;;;;;;;;;;4990307;28;20026;-80
2023/07/29 13:34:43;;;;;;;1.70;1.00;;;33.00;55.50;;;;;;4991342;28;20117;-81
2023/07/29 13:37:09;;;;;;;8.67;0.73;;;;;;;;;;4989392;28;20535;-82
2023/07/29 13:39:35;;;;;;;3.27;1.23;;;;;;;;;;4993669;28;20030;-84
2023/07/29 13:42:01;;;;;;;2.40;1.07;;;;;;;;;;4987135;28;20089;-82
2023/07/29 13:44:27;;;;;;;1.87;0.83;;;;;;;;;;5002245;28;20031;-82
2023/07/29 13:46:53;;;;;;;1.53;0.80;;;;;;;;;;4989885;28;20042;-82
2023/07/29 13:49:19;;;;;;;1.23;0.60;;;;;;;;;;5001341;28;20022;-83
2023/07/29 13:51:45;;;;;;;3.10;0.63;;;;;;;;;;4989745;28;20511;-84
2023/07/29 13:54:13;;;;;;;2.03;1.03;;;29.70;45.50;;;;;;5001075;28;20494;-83
2023/07/29 13:56:38;;;;;;;1.25;0.68;;;30.90;60.50;;;;;;4993312;28;20033;-82
2023/07/29 13:59:04;;;;;;;1.87;1.17;;;;;;;;;;4997592;28;20026;-83